createdAt,value
2018-10-07T00:01:14.952Z,7.17
2018-10-07T00:03:42.875Z,7.17
2018-10-07T00:06:13.957Z,6.50
2018-10-07T00:08:43.446Z,7.10
2018-10-07T00:11:15.057Z,6.90
2018-10-07T00:13:45.340Z,7.37
2018-10-07T00:16:13.715Z,7.30
2018-10-07T00:18:41.688Z,6.50
2018-10-07T00:21:10.482Z,7.80
2018-10-07T00:23:39.629Z,6.90
2018-10-07T00:26:09.003Z,8.17
2018-10-07T00:28:37.281Z,7.37
2018-10-07T00:31:15.330Z,7.80
2018-10-07T00:33:46.449Z,6.80
2018-10-07T00:36:15.871Z,7.70
2018-10-07T00:38:43.854Z,7.90
2018-10-07T00:41:13.484Z,8.57
2018-10-07T00:43:42.242Z,7.17
2018-10-07T00:46:10.192Z,7.73
2018-10-07T00:48:38.045Z,7.50
2018-10-07T00:51:06.656Z,7.53
2018-10-07T00:53:34.569Z,7.73
2018-10-07T00:56:02.636Z,7.70
2018-10-07T00:58:31.312Z,8.00
2018-10-07T01:00:59.635Z,7.00
2018-10-07T01:03:30.636Z,7.80
2018-10-07T01:05:59.178Z,7.50
2018-10-07T01:08:28.254Z,6.90
2018-10-07T01:10:56.272Z,8.03
2018-10-07T01:13:30.422Z,7.63
2018-10-07T01:15:58.735Z,8.20
2018-10-07T01:18:26.646Z,7.33
2018-10-07T01:21:01.003Z,7.90
2018-10-07T01:23:29.660Z,7.03
2018-10-07T01:29:00.020Z,7.53
2018-10-07T01:31:27.843Z,7.00
2018-10-07T01:34:01.113Z,7.97
2018-10-07T01:42:15.492Z,7.43
2018-10-07T01:44:44.927Z,7.27
2018-10-07T01:47:14.480Z,8.60
2018-10-07T01:49:45.927Z,6.97
2018-10-07T01:52:14.666Z,7.60
2018-10-07T01:54:42.527Z,7.27
2018-10-07T01:57:10.415Z,7.93
2018-10-07T01:59:38.458Z,7.63
2018-10-07T02:02:06.809Z,7.20
2018-10-07T02:04:35.537Z,7.47
2018-10-07T02:07:05.516Z,7.87
2018-10-07T02:09:33.782Z,7.37
2018-10-07T02:12:02.016Z,7.53
2018-10-07T02:14:30.138Z,8.10
2018-10-07T02:16:59.430Z,6.60
2018-10-07T02:19:27.428Z,7.37
2018-10-07T02:21:55.615Z,7.20
2018-10-07T02:24:30.431Z,7.13
2018-10-07T02:27:00.640Z,6.80
2018-10-07T02:29:36.775Z,7.00
2018-10-07T02:32:04.777Z,6.87
2018-10-07T02:34:33.273Z,7.20
2018-10-07T02:37:09.998Z,7.03
2018-10-07T02:39:38.782Z,7.23
2018-10-07T02:42:14.747Z,7.83
2018-10-07T02:44:43.057Z,7.27
2018-10-07T02:47:11.102Z,7.33
2018-10-07T02:49:39.351Z,6.80
2018-10-07T02:52:07.295Z,7.73
2018-10-07T02:54:35.147Z,6.10
2018-10-07T02:57:02.936Z,7.00
2018-10-07T02:59:30.788Z,6.60
2018-10-07T03:01:58.687Z,7.70
2018-10-07T03:04:29.115Z,7.53
2018-10-07T03:06:58.184Z,6.60
2018-10-07T03:09:26.380Z,6.63
2018-10-07T03:11:54.158Z,7.60
2018-10-07T03:14:24.808Z,6.87
2018-10-07T03:16:52.698Z,6.97
2018-10-07T03:19:20.581Z,7.23
2018-10-07T03:24:33.256Z,7.43
2018-10-07T03:27:04.603Z,8.30
2018-10-07T03:29:32.994Z,7.07
2018-10-07T03:32:03.729Z,7.23
2018-10-07T03:34:32.601Z,7.37
2018-10-07T03:37:00.700Z,6.93
2018-10-07T03:39:44.976Z,7.77
2018-10-07T03:42:16.459Z,7.00
2018-10-07T03:44:44.901Z,6.70
2018-10-07T03:47:12.888Z,8.27
2018-10-07T03:49:41.230Z,8.23
2018-10-07T03:52:10.322Z,8.03
2018-10-07T03:54:38.423Z,9.30
2018-10-07T03:57:09.208Z,8.80
2018-10-07T03:59:37.505Z,9.33
2018-10-07T04:02:08.305Z,9.70
2018-10-07T04:04:36.362Z,8.60
2018-10-07T04:07:04.643Z,9.60
2018-10-07T04:09:32.391Z,8.50
2018-10-07T04:12:10.565Z,8.53
2018-10-07T04:14:39.474Z,9.10
2018-10-07T04:17:07.659Z,8.90
2018-10-07T04:19:35.701Z,8.10
2018-10-07T04:22:13.157Z,9.33
2018-10-07T04:24:41.480Z,8.00
2018-10-07T04:27:10.333Z,9.20
2018-10-07T04:29:38.247Z,8.10
2018-10-07T04:32:06.515Z,8.50
2018-10-07T04:37:37.106Z,9.27
2018-10-07T04:43:14.934Z,10.87
2018-10-07T04:45:42.910Z,9.43
2018-10-07T04:48:10.806Z,8.80
2018-10-07T04:50:38.569Z,8.43
2018-10-07T04:53:06.403Z,9.00
2018-10-07T04:55:34.501Z,8.37
2018-10-07T04:58:02.261Z,9.70
2018-10-07T05:00:30.160Z,9.37
2018-10-07T05:02:58.989Z,9.40
2018-10-07T05:05:27.190Z,9.50
2018-10-07T05:07:55.306Z,9.60
2018-10-07T05:11:01.107Z,9.90
2018-10-07T05:13:43.711Z,9.57
2018-10-07T05:16:18.131Z,9.00
2018-10-07T05:18:46.224Z,9.27
2018-10-07T05:21:14.257Z,8.67
2018-10-07T05:23:42.016Z,10.00
2018-10-07T05:26:16.062Z,10.57
2018-10-07T05:28:45.558Z,9.30
2018-10-07T05:36:33.552Z,9.17
2018-10-07T05:39:01.869Z,9.83
2018-10-07T05:44:45.980Z,10.53
2018-10-07T05:47:19.587Z,10.00
2018-10-07T05:49:47.905Z,10.00
2018-10-07T05:52:26.293Z,10.07
2018-10-07T05:54:55.827Z,11.10
2018-10-07T05:57:46.898Z,10.40
2018-10-07T06:00:17.660Z,10.57
2018-10-07T06:03:13.469Z,10.30
2018-10-07T06:05:46.242Z,10.77
2018-10-07T06:08:15.761Z,10.33
2018-10-07T06:10:43.975Z,11.10
2018-10-07T06:13:12.091Z,11.47
2018-10-07T06:15:42.533Z,10.93
2018-10-07T06:18:32.767Z,11.03
2018-10-07T06:21:00.620Z,10.90
2018-10-07T06:23:34.339Z,9.20
2018-10-07T06:26:02.551Z,9.93
2018-10-07T06:28:30.447Z,9.30
2018-10-07T06:30:58.296Z,10.07
2018-10-07T06:33:32.295Z,11.20
2018-10-07T06:36:00.955Z,13.27
2018-10-07T06:38:29.506Z,14.10
2018-10-07T06:40:57.905Z,15.90
2018-10-07T06:43:25.933Z,16.70
2018-10-07T06:45:54.453Z,15.87
2018-10-07T06:48:23.414Z,16.27
2018-10-07T06:50:51.649Z,16.53
2018-10-07T06:53:20.959Z,16.90
2018-10-07T06:55:49.719Z,18.47
2018-10-07T06:58:18.585Z,18.13
2018-10-07T07:00:48.444Z,19.37
2018-10-07T07:03:16.521Z,18.33
2018-10-07T07:05:44.318Z,20.00
2018-10-07T07:08:12.291Z,19.70
2018-10-07T07:10:40.080Z,20.27
2018-10-07T07:13:08.178Z,20.93
2018-10-07T07:15:45.452Z,21.03
2018-10-07T07:18:14.168Z,21.97
2018-10-07T07:20:42.024Z,23.07
2018-10-07T07:23:09.959Z,23.77
2018-10-07T07:25:41.031Z,23.07
2018-10-07T07:28:08.869Z,26.87
2018-10-07T07:30:37.991Z,25.00
2018-10-07T07:33:08.680Z,25.93
2018-10-07T07:35:37.013Z,24.53
2018-10-07T07:38:05.412Z,24.47
2018-10-07T07:40:33.085Z,24.77
2018-10-07T07:43:05.694Z,25.37
2018-10-07T07:45:33.434Z,26.73
2018-10-07T07:48:01.309Z,27.13
2018-10-07T07:50:29.397Z,25.90
2018-10-07T07:52:59.138Z,28.87
2018-10-07T07:55:27.077Z,27.20
2018-10-07T07:57:54.994Z,26.97
2018-10-07T08:00:23.177Z,27.00
2018-10-07T08:03:01.777Z,27.90
2018-10-07T08:05:29.739Z,26.63
2018-10-07T08:07:58.129Z,26.27
2018-10-07T08:10:26.031Z,26.40
2018-10-07T08:12:53.653Z,26.97
2018-10-07T08:15:21.785Z,27.27
2018-10-07T08:17:50.013Z,27.60
2018-10-07T08:20:17.872Z,26.40
2018-10-07T08:22:45.675Z,29.57
2018-10-07T08:25:14.150Z,28.27
2018-10-07T08:27:42.263Z,30.60
2018-10-07T08:30:18.523Z,29.80
2018-10-07T08:32:46.722Z,32.40
2018-10-07T08:35:15.556Z,29.70
2018-10-07T08:37:43.178Z,29.07
2018-10-07T08:40:11.624Z,30.27
2018-10-07T08:42:41.509Z,31.77
2018-10-07T08:45:10.325Z,30.00
2018-10-07T08:47:38.124Z,34.63
2018-10-07T08:50:06.160Z,34.43
2018-10-07T08:52:34.024Z,32.63
2018-10-07T08:55:01.868Z,35.57
2018-10-07T08:57:29.961Z,32.43
2018-10-07T08:59:58.851Z,34.17
2018-10-07T09:02:26.563Z,32.27
2018-10-07T09:04:54.245Z,31.30
2018-10-07T09:07:22.713Z,33.10
2018-10-07T09:09:50.730Z,32.40
2018-10-07T09:12:19.219Z,36.30
2018-10-07T09:14:48.711Z,34.13
2018-10-07T09:17:17.240Z,33.07
2018-10-07T09:19:45.183Z,34.87
2018-10-07T09:22:14.600Z,33.83
2018-10-07T09:24:42.437Z,33.70
2018-10-07T09:27:10.417Z,34.80
2018-10-07T09:29:38.508Z,34.50
2018-10-07T09:32:06.538Z,36.13
2018-10-07T09:34:34.288Z,34.87
2018-10-07T09:37:02.303Z,34.50
2018-10-07T09:39:30.602Z,33.00
2018-10-07T09:42:00.183Z,34.17
2018-10-07T09:44:28.219Z,34.50
2018-10-07T09:46:56.264Z,33.83
2018-10-07T09:49:29.150Z,34.17
2018-10-07T09:52:01.288Z,34.83
2018-10-07T09:54:29.310Z,36.10
2018-10-07T09:56:57.627Z,34.40
2018-10-07T10:02:18.571Z,35.63
2018-10-07T10:04:46.410Z,34.27
2018-10-07T10:07:15.669Z,35.07
2018-10-07T10:09:44.243Z,30.63
2018-10-07T10:12:12.115Z,34.47
2018-10-07T10:14:40.218Z,32.13
2018-10-07T10:17:11.560Z,35.53
2018-10-07T10:19:52.788Z,31.77
2018-10-07T10:24:31.214Z,30.17
2018-10-07T10:27:14.883Z,31.20
2018-10-07T10:29:51.173Z,28.23
2018-10-07T10:32:28.949Z,26.30
2018-10-07T10:35:08.653Z,25.67
2018-10-07T10:37:41.983Z,27.23
2018-10-07T10:40:16.152Z,27.53
2018-10-07T10:42:47.995Z,26.57
2018-10-07T10:45:30.130Z,24.07
2018-10-07T10:48:14.989Z,28.37
2018-10-07T10:50:45.530Z,27.70
2018-10-07T10:53:51.813Z,31.23
2018-10-07T10:56:29.098Z,31.30
2018-10-07T11:01:10.161Z,29.73
2018-10-07T11:03:49.605Z,29.60
2018-10-07T11:07:29.363Z,29.40
2018-10-07T11:12:13.170Z,29.73
2018-10-07T11:15:44.429Z,25.73
2018-10-07T11:18:59.038Z,23.83
2018-10-07T11:21:41.043Z,25.20
2018-10-07T11:24:15.137Z,23.23
2018-10-07T11:28:59.743Z,20.50
2018-10-07T11:32:36.812Z,20.63
2018-10-07T11:35:30.334Z,19.10
2018-10-07T11:38:10.177Z,17.70
2018-10-07T11:42:47.927Z,17.50
2018-10-07T11:45:26.558Z,17.57
2018-10-07T11:48:04.682Z,16.13
2018-10-07T11:50:43.572Z,15.40
2018-10-07T11:53:27.844Z,14.70
2018-10-07T11:55:55.823Z,14.40
2018-10-07T11:58:25.041Z,14.80
2018-10-07T12:00:52.996Z,14.53
2018-10-07T12:03:20.747Z,13.17
2018-10-07T12:05:51.077Z,13.90
2018-10-07T12:08:20.083Z,12.00
2018-10-07T12:10:47.985Z,12.00
2018-10-07T12:13:16.418Z,11.10
2018-10-07T12:15:45.790Z,13.63
2018-10-07T12:18:13.815Z,15.53
2018-10-07T12:20:43.872Z,14.03
2018-10-07T12:23:13.237Z,13.03
2018-10-07T12:25:41.277Z,12.27
2018-10-07T12:28:09.749Z,14.77
2018-10-07T12:30:40.362Z,13.50
2018-10-07T12:33:09.636Z,10.70
2018-10-07T12:35:37.675Z,10.97
2018-10-07T12:38:13.869Z,10.00
2018-10-07T12:40:41.924Z,12.00
2018-10-07T12:43:11.041Z,10.13
2018-10-07T12:45:42.923Z,7.33
2018-10-07T12:48:11.758Z,7.47
2018-10-07T12:50:55.770Z,6.43
2018-10-07T12:53:26.606Z,9.30
2018-10-07T12:55:56.180Z,8.90
2018-10-07T12:58:45.342Z,7.70
2018-10-07T13:01:13.854Z,6.60
2018-10-07T13:03:43.144Z,5.90
2018-10-07T13:06:14.615Z,6.57
2018-10-07T13:08:42.383Z,7.03
2018-10-07T13:11:11.154Z,6.70
2018-10-07T13:13:40.048Z,7.17
2018-10-07T13:16:11.203Z,6.70
2018-10-07T13:18:40.594Z,7.20
2018-10-07T13:21:08.392Z,7.03
2018-10-07T13:23:36.305Z,7.00
2018-10-07T13:26:09.821Z,7.27
2018-10-07T13:28:45.531Z,8.10
2018-10-07T13:31:13.481Z,8.53
2018-10-07T13:33:42.547Z,8.60
2018-10-07T13:36:12.121Z,7.43
2018-10-07T13:38:40.355Z,8.50
2018-10-07T13:41:08.436Z,10.70
2018-10-07T13:43:39.759Z,11.20
2018-10-07T13:46:09.742Z,10.23
2018-10-07T13:48:37.514Z,11.37
2018-10-07T13:51:06.326Z,11.90
2018-10-07T13:53:34.877Z,11.77
2018-10-07T13:56:04.813Z,12.33
2018-10-07T13:58:32.519Z,11.27
2018-10-07T14:01:00.244Z,12.13
2018-10-07T14:03:28.076Z,12.70
2018-10-07T14:06:00.223Z,11.90
2018-10-07T14:08:34.596Z,12.40
2018-10-07T14:11:04.259Z,12.67
2018-10-07T14:13:32.675Z,11.77
2018-10-07T14:16:02.912Z,12.73
2018-10-07T14:18:30.972Z,12.03
2018-10-07T14:20:59.375Z,10.93
2018-10-07T14:23:27.979Z,11.63
2018-10-07T14:25:58.556Z,13.10
2018-10-07T14:28:26.461Z,12.47
2018-10-07T14:30:55.531Z,10.63
2018-10-07T14:33:23.499Z,11.83
2018-10-07T14:35:52.633Z,10.83
2018-10-07T14:38:30.985Z,10.40
2018-10-07T14:40:59.018Z,10.43
2018-10-07T14:43:26.851Z,11.13
2018-10-07T14:45:56.934Z,10.17
2018-10-07T14:48:24.679Z,10.17
2018-10-07T14:50:53.127Z,9.70
2018-10-07T14:53:21.350Z,9.47
2018-10-07T14:55:49.952Z,8.50
2018-10-07T14:58:18.122Z,9.50
2018-10-07T15:00:46.151Z,8.50
2018-10-07T15:03:14.514Z,8.30
2018-10-07T15:05:45.835Z,7.83
2018-10-07T15:08:13.896Z,7.30
2018-10-07T15:10:52.483Z,7.03
2018-10-07T15:13:20.435Z,7.07
2018-10-07T15:15:49.746Z,6.93
2018-10-07T15:18:17.569Z,6.80
2018-10-07T15:20:48.594Z,6.43
2018-10-07T15:23:18.081Z,5.57
2018-10-07T15:25:50.558Z,5.47
2018-10-07T15:28:18.544Z,5.23
2018-10-07T15:30:48.068Z,5.87
2018-10-07T15:33:16.060Z,5.00
2018-10-07T15:35:45.909Z,4.40
2018-10-07T15:38:16.354Z,4.73
2018-10-07T15:40:44.282Z,5.27
2018-10-07T15:43:12.076Z,4.50
2018-10-07T15:45:40.761Z,5.43
2018-10-07T15:48:10.398Z,4.00
2018-10-07T15:50:38.964Z,3.90
2018-10-07T15:53:06.727Z,3.73
2018-10-07T15:55:35.611Z,4.00
2018-10-07T15:58:04.496Z,3.90
2018-10-07T16:00:32.226Z,4.00
2018-10-07T16:03:01.369Z,3.70
2018-10-07T16:05:52.010Z,3.50
2018-10-07T16:08:27.607Z,3.60
2018-10-07T16:10:55.408Z,3.40
2018-10-07T16:13:23.272Z,3.60
2018-10-07T16:15:51.261Z,3.40
2018-10-07T16:18:20.466Z,3.20
2018-10-07T16:20:48.383Z,3.17
2018-10-07T16:23:22.634Z,4.30
2018-10-07T16:26:07.513Z,3.40
2018-10-07T16:28:52.811Z,3.70
2018-10-07T16:31:21.045Z,3.60
2018-10-07T16:33:53.519Z,3.20
2018-10-07T16:36:22.062Z,3.20
2018-10-07T16:38:49.799Z,3.10
2018-10-07T16:41:18.024Z,2.90
2018-10-07T16:43:45.776Z,3.37
2018-10-07T16:46:17.978Z,3.53
2018-10-07T16:48:50.020Z,3.33
2018-10-07T16:51:17.854Z,3.63
2018-10-07T16:53:46.915Z,3.40
2018-10-07T16:56:15.136Z,3.50
2018-10-07T16:58:43.086Z,2.60
2018-10-07T17:01:10.871Z,3.27
2018-10-07T17:03:39.222Z,3.17
2018-10-07T17:06:07.230Z,3.20
2018-10-07T17:08:36.185Z,2.87
2018-10-07T17:11:04.645Z,3.10
2018-10-07T17:13:34.195Z,3.30
2018-10-07T17:16:02.213Z,2.97
2018-10-07T17:18:30.020Z,2.40
2018-10-07T17:20:57.917Z,2.50
2018-10-07T17:23:32.111Z,3.73
2018-10-07T17:26:03.615Z,3.60
2018-10-07T17:28:34.237Z,3.30
2018-10-07T17:31:02.072Z,3.00
2018-10-07T17:33:29.973Z,3.60
2018-10-07T17:35:59.032Z,3.50
2018-10-07T17:38:26.651Z,3.60
2018-10-07T17:40:59.521Z,2.97
2018-10-07T17:43:39.099Z,3.70
2018-10-07T17:46:08.155Z,5.73
2018-10-07T17:48:40.643Z,2.70
2018-10-07T17:51:10.933Z,2.37
2018-10-07T17:53:39.080Z,2.60
2018-10-07T17:56:07.527Z,3.17
2018-10-07T17:58:50.143Z,3.30
2018-10-07T18:01:20.093Z,2.60
2018-10-07T18:03:48.998Z,3.70
2018-10-07T18:06:17.764Z,3.20
2018-10-07T18:08:47.468Z,3.30
2018-10-07T18:11:16.635Z,3.10
2018-10-07T18:13:52.656Z,3.17
2018-10-07T18:16:22.107Z,3.23
2018-10-07T18:18:52.845Z,2.50
2018-10-07T18:21:20.931Z,4.60
2018-10-07T18:23:54.451Z,4.37
2018-10-07T18:26:22.164Z,4.10
2018-10-07T18:28:50.449Z,3.73
2018-10-07T18:31:20.246Z,4.43
2018-10-07T18:33:48.056Z,4.60
2018-10-07T18:36:16.785Z,4.00
2018-10-07T18:38:47.513Z,4.30
2018-10-07T18:41:25.650Z,3.70
2018-10-07T18:44:00.843Z,4.90
2018-10-07T18:46:30.542Z,4.27
2018-10-07T18:48:58.444Z,4.20
2018-10-07T18:51:26.302Z,4.40
2018-10-07T18:53:57.108Z,4.80
2018-10-07T18:59:20.896Z,5.37
2018-10-07T19:01:48.727Z,4.70
2018-10-07T19:04:19.057Z,5.60
2018-10-07T19:06:48.200Z,6.10
2018-10-07T19:09:15.907Z,6.80
2018-10-07T19:14:47.503Z,5.67
2018-10-07T19:17:25.327Z,6.00
2018-10-07T19:19:58.871Z,7.37
2018-10-07T19:22:27.117Z,5.60
2018-10-07T19:24:57.363Z,5.97
2018-10-07T19:43:41.209Z,5.13
2018-10-07T19:46:16.721Z,6.40
2018-10-07T19:51:47.026Z,11.73
2018-10-07T19:54:15.406Z,7.40
2018-10-07T19:57:01.946Z,5.43
2018-10-07T19:59:31.402Z,5.17
2018-10-07T20:02:00.864Z,5.43
2018-10-07T20:04:28.874Z,5.80
2018-10-07T20:09:37.212Z,5.40
2018-10-07T20:12:10.029Z,5.20
2018-10-07T20:14:38.167Z,5.20
2018-10-07T20:17:08.056Z,5.30
2018-10-07T20:19:55.189Z,5.00
2018-10-07T20:22:26.389Z,5.37
2018-10-07T20:28:05.168Z,4.60
2018-10-07T20:30:33.022Z,5.30
2018-10-07T20:35:44.853Z,5.57
2018-10-07T20:38:14.758Z,5.00
2018-10-07T20:40:42.642Z,5.53
2018-10-07T20:43:10.443Z,6.80
2018-10-07T20:45:47.711Z,5.70
2018-10-07T20:48:15.935Z,7.10
2018-10-07T20:50:44.041Z,7.10
2018-10-07T20:53:12.102Z,6.27
2018-10-07T20:55:51.661Z,6.93
2018-10-07T21:01:24.055Z,6.47
2018-10-07T21:03:52.325Z,6.67
2018-10-07T21:06:22.644Z,6.47
2018-10-07T21:08:51.044Z,6.83
2018-10-07T21:11:19.969Z,6.80
2018-10-07T21:16:55.753Z,6.40
2018-10-07T21:19:29.489Z,5.93
2018-10-07T21:21:59.266Z,6.53
2018-10-07T21:27:25.401Z,7.30
2018-10-07T21:32:37.661Z,5.87
2018-10-07T21:35:05.642Z,6.63
2018-10-07T21:40:55.394Z,6.30
2018-10-07T21:43:24.676Z,7.10
2018-10-07T21:45:52.841Z,6.80
2018-10-07T21:48:21.440Z,6.67
2018-10-07T21:50:49.744Z,6.50
2018-10-07T21:53:17.490Z,7.37
2018-10-07T21:55:48.125Z,7.70
2018-10-07T21:58:16.169Z,7.00
2018-10-07T22:00:44.509Z,6.47
2018-10-07T22:03:12.390Z,7.30
2018-10-07T22:05:54.997Z,7.97
2018-10-07T22:08:24.952Z,8.60
2018-10-07T22:10:52.812Z,6.97
2018-10-07T22:13:22.572Z,7.77
2018-10-07T22:18:57.803Z,9.33
2018-10-07T22:21:28.160Z,9.03
2018-10-07T22:24:04.011Z,8.67
2018-10-07T22:26:59.151Z,7.63
2018-10-07T22:29:43.317Z,7.63
2018-10-07T22:32:11.252Z,7.67
2018-10-07T22:34:39.114Z,7.30
2018-10-07T22:40:01.490Z,6.80
2018-10-07T22:42:31.688Z,6.53
2018-10-07T22:45:06.985Z,6.90
2018-10-07T22:47:55.738Z,6.30
2018-10-07T22:50:24.156Z,8.00
2018-10-07T22:55:56.736Z,7.00
2018-10-07T22:58:24.940Z,6.27
2018-10-07T23:00:52.867Z,6.73
2018-10-07T23:03:21.431Z,6.80
2018-10-07T23:11:57.816Z,6.27
2018-10-07T23:14:42.321Z,6.60
2018-10-07T23:17:11.755Z,6.50
2018-10-07T23:19:40.967Z,7.17
2018-10-07T23:22:14.869Z,7.10
2018-10-07T23:24:51.078Z,6.43
2018-10-07T23:27:19.165Z,6.93
2018-10-07T23:29:47.896Z,6.40
2018-10-07T23:35:26.109Z,6.50
2018-10-07T23:49:44.888Z,7.07
2018-10-07T23:52:40.509Z,6.27
2018-10-07T23:55:16.204Z,7.07
